Time;durP1;ratioP1;P1;durP2;ratioP2;P2;SDS_P1;SDS_P2;PMS_P1;PMS_P2;Temp;Humidity;BMP_temperature;BMP_pressure;BME280_temperature;BME280_humidity;BME280_pressure;Samples;Min_cycle;Max_cycle;Signal;HPM_P1;HPM_P2
2021/06/05 00:00:55;;;;;;;6.78;4.93;;;;;;;;;;5035144;28;20030;-66
2021/06/05 00:03:21;;;;;;;7.93;5.40;;;;;;;;;;5034364;28;20425;-64
2021/06/05 00:05:49;;;;;;;6.53;4.25;;;;;;;;;;5030986;28;20478;-64
2021/06/05 00:08:15;;;;;;;;;;;;;;;;;;5036849;28;20033;-65
2021/06/05 00:10:43;;;;;;;9.88;6.00;;;;;;;;;;5035335;28;19952;-65
2021/06/05 00:13:24;;;;;;;11.65;7.32;;;;;;;;;;5034932;28;20052;-66
2021/06/05 00:15:51;;;;;;;9.50;6.43;;;;;;;;;;5034933;28;20084;-66
2021/06/05 00:18:17;;;;;;;12.00;7.10;;;;;;;;;;5034668;28;20037;-66
2021/06/05 00:20:43;;;;;;;10.35;7.47;;;;;;;;;;5030380;28;20053;-66
2021/06/05 00:23:12;;;;;;;13.52;9.15;;;;;;;;;;5037611;28;20421;-66
2021/06/05 00:25:38;;;;;;;13.52;9.60;;;;;;;;;;5036726;28;20030;-66
2021/06/05 00:28:04;;;;;;;11.32;8.57;;;;;;;;;;5034394;28;20045;-66
2021/06/05 00:30:30;;;;;;;10.75;7.65;;;;;;;;;;5034675;28;20028;-66
2021/06/05 00:32:56;;;;;;;11.45;9.32;;;;;;;;;;5032439;28;20033;-66
2021/06/05 00:35:24;;;;;;;12.68;9.73;;;;;;;;;;5034246;28;20029;-66
2021/06/05 00:37:50;;;;;;;13.32;9.88;;;;;;;;;;5035156;28;20041;-66
2021/06/05 00:40:17;;;;;;;12.75;9.02;;;;;;;;;;5034268;28;20037;-67
2021/06/05 00:42:43;;;;;;;13.27;9.80;;;;;;;;;;5035491;28;20370;-66
2021/06/05 00:45:11;;;;;;;7.30;5.85;;;;;;;;;;5033504;28;20108;-66
2021/06/05 00:47:37;;;;;;;15.05;8.73;;;;;;;;;;5031185;28;20046;-66
2021/06/05 00:50:04;;;;;;;13.63;9.20;;;;;;;;;;5035825;28;20523;-66
2021/06/05 00:52:31;;;;;;;11.90;9.80;;;;;;;;;;5034231;28;20029;-66
2021/06/05 00:54:57;;;;;;;10.82;8.75;;;;;;;;;;5034079;28;20476;-66
2021/06/05 00:57:24;;;;;;;11.13;9.93;;;;;;;;;;5033650;28;20491;-67
2021/06/05 00:59:50;;;;;;;15.20;10.07;;;;;;;;;;5030877;28;20032;-67
2021/06/05 01:02:16;;;;;;;15.23;11.88;;;;;;;;;;5035564;28;20562;-67
2021/06/05 01:04:42;;;;;;;15.13;11.38;;;;;;;;;;5034293;28;20029;-67
2021/06/05 01:07:16;;;;;;;14.05;12.05;;;;;;;;;;5033675;28;20488;-67
2021/06/05 01:10:00;;;;;;;14.18;11.77;;;;;;;;;;5033728;28;20029;-67
2021/06/05 01:12:47;;;;;;;12.18;10.88;;;;;;;;;;5033866;28;20017;-67
2021/06/05 01:15:16;;;;;;;15.07;12.00;;;;;;;;;;5033560;28;20472;-67
2021/06/05 01:17:44;;;;;;;15.90;12.35;;;;;;;;;;5013906;28;20030;-67
2021/06/05 01:20:28;;;;;;;15.50;13.82;;;;;;;;;;5034958;28;20091;-67
2021/06/05 01:23:26;;;;;;;16.58;12.93;;;;;;;;;;5035531;28;20052;-67
2021/06/05 01:26:28;;;;;;;14.27;12.60;;;;;;;;;;4999284;28;20049;-67
2021/06/05 01:28:57;;;;;;;16.52;13.40;;;;;;;;;;4938830;28;20035;-67
2021/06/05 01:31:27;;;;;;;17.30;14.45;;;;;;;;;;5019341;28;20044;-67
2021/06/05 01:33:54;;;;;;;15.63;13.18;;;;;;;;;;5033292;28;20040;-67
2021/06/05 01:36:21;;;;;;;18.60;13.93;;;;;;;;;;5033548;28;20107;-67
2021/06/05 01:38:51;;;;;;;18.08;13.95;;;;;;;;;;5029541;28;20129;-67
2021/06/05 01:41:18;;;;;;;14.95;12.00;;;;;;;;;;5033806;28;20033;-66
2021/06/05 01:43:45;;;;;;;17.85;11.63;;;;;;;;;;5035824;28;20056;-67
2021/06/05 01:46:12;;;;;;;13.95;11.82;;;;;;;;;;5032855;28;20018;-67
2021/06/05 01:48:38;;;;;;;15.13;12.30;;;;;;;;;;5033042;28;20500;-67
2021/06/05 01:51:07;;;;;;;15.98;13.35;;;;;;;;;;5032075;28;20033;-67
2021/06/05 01:53:36;;;;;;;15.82;12.20;;;;;;;;;;5030859;28;20042;-67
2021/06/05 01:56:08;;;;;;;13.93;12.30;;;;;;;;;;5035328;28;20052;-67
2021/06/05 01:58:34;;;;;;;17.40;12.90;;;;;;;;;;5031796;28;20037;-67
2021/06/05 02:01:01;;;;;;;19.05;13.43;;;;;;;;;;5034124;28;20030;-66
2021/06/05 02:03:27;;;;;;;22.10;17.05;;;;;;;;;;5032660;28;20029;-66
2021/06/05 02:05:53;;;;;;;20.10;16.00;;;;;;;;;;5029748;28;20010;-67
2021/06/05 02:08:23;;;;;;;19.20;16.48;;;;;;;;;;5033653;28;20055;-67
2021/06/05 02:10:49;;;;;;;17.52;14.43;;;;;;;;;;5034065;28;20017;-67
2021/06/05 02:13:22;;;;;;;18.17;12.98;;;;;;;;;;5032359;28;20036;-67
2021/06/05 02:15:50;;;;;;;17.40;15.20;;;;;;;;;;5031198;28;20384;-67
2021/06/05 02:18:16;;;;;;;;;;;;;;;;;;5032805;28;20048;-67
2021/06/05 02:20:44;;;;;;;16.88;14.23;;;;;;;;;;5030043;28;19910;-67
2021/06/05 02:23:16;;;;;;;19.05;14.50;;;;;;;;;;5035557;28;20113;-67
2021/06/05 02:25:42;;;;;;;18.08;14.43;;;;;;;;;;5033367;28;20497;-67
2021/06/05 02:28:09;;;;;;;17.27;12.93;;;;;;;;;;5032631;28;20499;-67
2021/06/05 02:30:35;;;;;;;14.80;12.10;;;;;;;;;;5032776;28;20037;-67
2021/06/05 02:33:02;;;;;;;15.27;12.27;;;;;;;;;;5030836;28;20026;-67
2021/06/05 02:35:30;;;;;;;17.88;14.07;;;;;;;;;;5031654;28;20224;-67
2021/06/05 02:37:56;;;;;;;;;;;;;;;;;;5034607;28;20124;-66
2021/06/05 02:40:23;;;;;;;16.10;13.05;;;;;;;;;;5033380;28;20017;-67
2021/06/05 02:42:50;;;;;;;16.85;14.10;;;;;;;;;;5032403;28;20025;-67
2021/06/05 02:45:21;;;;;;;19.55;15.23;;;;;;;;;;5032278;28;20078;-67
2021/06/05 02:47:59;;;;;;;14.55;12.98;;;;;;;;;;5028730;28;20477;-67
2021/06/05 02:50:29;;;;;;;16.83;14.07;;;;;;;;;;5032445;28;20484;-67
2021/06/05 02:52:55;;;;;;;16.30;13.95;;;;;;;;;;5033815;28;20075;-66
2021/06/05 02:55:22;;;;;;;14.98;13.13;;;;;;;;;;5031986;28;20136;-67
2021/06/05 02:57:49;;;;;;;16.33;13.65;;;;;;;;;;5032370;28;20492;-67
2021/06/05 03:00:21;;;;;;;15.38;13.30;;;;;;;;;;5032143;28;20029;-67
2021/06/05 03:02:47;;;;;;;16.80;12.07;;;;;;;;;;5028429;28;20048;-67
2021/06/05 03:05:14;;;;;;;15.70;11.20;;;;;;;;;;5033991;28;20069;-67
2021/06/05 03:07:40;;;;;;;16.23;12.75;;;;;;;;;;5032967;28;20030;-67
2021/06/05 03:10:07;;;;;;;16.80;13.55;;;;;;;;;;5032004;28;20534;-67
2021/06/05 03:12:33;;;;;;;15.25;12.95;;;;;;;;;;5032320;28;20037;-67
2021/06/05 03:14:59;;;;;;;16.60;13.38;;;;;;;;;;5032927;28;20080;-67
2021/06/05 03:17:28;;;;;;;18.50;14.70;;;;;;;;;;5035614;28;20039;-67
2021/06/05 03:19:54;;;;;;;18.25;14.70;;;;;;;;;;5037773;28;20147;-67
2021/06/05 03:22:20;;;;;;;19.25;14.68;;;;;;;;;;5035562;28;20034;-67
2021/06/05 03:24:46;;;;;;;21.95;16.38;;;;;;;;;;5035587;28;20036;-67
2021/06/05 03:27:12;;;;;;;18.52;16.17;;;;;;;;;;5035156;28;20150;-66
2021/06/05 03:29:38;;;;;;;20.05;16.85;;;;;;;;;;5032075;28;20453;-67
2021/06/05 03:32:05;;;;;;;20.05;16.77;;;;;;;;;;5038845;28;20072;-67
2021/06/05 03:34:31;;;;;;;20.48;16.88;;;;;;;;;;5035567;28;20033;-67
2021/06/05 03:36:57;;;;;;;19.27;17.15;;;;;;;;;;5035017;28;20033;-67
2021/06/05 03:39:23;;;;;;;20.63;17.30;;;;;;;;;;5035005;28;20057;-67
2021/06/05 03:41:49;;;;;;;20.33;16.95;;;;;;;;;;5032012;28;20033;-67
2021/06/05 03:44:15;;;;;;;19.08;15.63;;;;;;;;;;5037033;28;20397;-67
2021/06/05 03:46:41;;;;;;;17.77;14.60;;;;;;;;;;5036310;28;20025;-67
2021/06/05 03:49:09;;;;;;;18.08;13.70;;;;;;;;;;5035159;28;20022;-67
2021/06/05 03:51:35;;;;;;;18.13;13.82;;;;;;;;;;5035042;28;20060;-67
2021/06/05 03:54:01;;;;;;;18.42;13.98;;;;;;;;;;5033741;28;20026;-67
2021/06/05 03:56:27;;;;;;;19.27;14.40;;;;;;;;;;5034550;28;20105;-67
2021/06/05 03:58:53;;;;;;;15.95;12.85;;;;;;;;;;5036623;28;20108;-67
2021/06/05 04:01:24;;;;;;;15.52;12.98;;;;;;;;;;5034544;28;20056;-66
2021/06/05 04:03:50;;;;;;;15.13;13.52;;;;;;;;;;5034832;28;20534;-67
2021/06/05 04:06:19;;;;;;;15.88;14.18;;;;;;;;;;5035002;28;20029;-67
2021/06/05 04:08:45;;;;;;;18.92;15.20;;;;;;;;;;5030998;28;20045;-67
2021/06/05 04:11:11;;;;;;;17.52;15.48;;;;;;;;;;5036886;28;20040;-67
2021/06/05 04:13:37;;;;;;;16.67;13.40;;;;;;;;;;5034368;28;20026;-67
2021/06/05 04:16:04;;;;;;;14.73;13.02;;;;;;;;;;5034525;28;20476;-67
2021/06/05 04:18:32;;;;;;;18.92;14.60;;;;;;;;;;5034774;28;20404;-67
2021/06/05 04:20:58;;;;;;;;;;;;;;;;;;5032893;28;20081;-67
2021/06/05 04:23:24;;;;;;;19.98;14.45;;;;;;;;;;5034717;28;19913;-67
2021/06/05 04:25:50;;;;;;;18.83;15.63;;;;;;;;;;5035649;28;20036;-67
2021/06/05 04:28:17;;;;;;;15.70;13.27;;;;;;;;;;5034682;28;20033;-67
2021/06/05 04:30:44;;;;;;;16.45;14.70;;;;;;;;;;5034575;28;20028;-67
2021/06/05 04:33:11;;;;;;;16.45;14.55;;;;;;;;;;5033686;28;20701;-67
2021/06/05 04:35:37;;;;;;;15.98;14.27;;;;;;;;;;5031061;28;20056;-67
2021/06/05 04:38:04;;;;;;;14.45;12.95;;;;;;;;;;5037184;28;20429;-67
2021/06/05 04:40:30;;;;;;;16.38;14.63;;;;;;;;;;5033878;28;20031;-67
2021/06/05 04:42:56;;;;;;;17.40;15.00;;;;;;;;;;5034217;28;20504;-67
2021/06/05 04:45:22;;;;;;;18.15;13.50;;;;;;;;;;5034278;28;20037;-67
2021/06/05 04:47:49;;;;;;;16.73;14.75;;;;;;;;;;5030580;28;20026;-67
2021/06/05 04:50:16;;;;;;;14.80;12.73;;;;;;;;;;5036102;28;20025;-67
2021/06/05 04:52:42;;;;;;;13.80;11.93;;;;;;;;;;5034817;28;20027;-66
2021/06/05 04:55:08;;;;;;;18.20;12.25;;;;;;;;;;5033717;28;20029;-67
2021/06/05 04:57:34;;;;;;;15.52;13.07;;;;;;;;;;5033862;28;20045;-67
2021/06/05 05:00:00;;;;;;;16.20;13.30;;;;;;;;;;5032305;28;20072;-67
2021/06/05 05:02:27;;;;;;;16.73;11.10;;;;;;;;;;5033778;28;20032;-67
2021/06/05 05:04:53;;;;;;;13.18;11.73;;;;;;;;;;5034998;28;20392;-67
2021/06/05 05:07:19;;;;;;;12.00;10.75;;;;;;;;;;5033708;28;20030;-67
2021/06/05 05:09:45;;;;;;;14.38;10.95;;;;;;;;;;5033426;28;20025;-67
2021/06/05 05:12:12;;;;;;;14.65;11.18;;;;;;;;;;5034669;28;20028;-67
2021/06/05 05:14:38;;;;;;;15.43;12.00;;;;;;;;;;5038606;28;20030;-67
2021/06/05 05:17:04;;;;;;;15.65;12.07;;;;;;;;;;5042022;28;20475;-67
2021/06/05 05:19:31;;;;;;;13.52;12.13;;;;;;;;;;5042944;28;20029;-70
2021/06/05 05:21:57;;;;;;;17.95;12.90;;;;;;;;;;5040961;28;20017;-69
2021/06/05 05:24:23;;;;;;;13.73;11.45;;;;;;;;;;5040716;28;20041;-70
2021/06/05 05:26:49;;;;;;;12.85;10.95;;;;;;;;;;5040309;28;20022;-70
2021/06/05 05:29:15;;;;;;;13.98;10.48;;;;;;;;;;5041836;28;20032;-70
2021/06/05 05:31:41;;;;;;;12.05;10.75;;;;;;;;;;5040918;28;20060;-69
2021/06/05 05:34:07;;;;;;;14.27;11.23;;;;;;;;;;5040492;28;20104;-71
2021/06/05 05:36:35;;;;;;;16.50;12.57;;;;;;;;;;5040201;28;20096;-71
2021/06/05 05:39:01;;;;;;;14.15;11.82;;;;;;;;;;5040324;28;20558;-67
2021/06/05 05:41:28;;;;;;;13.50;11.52;;;;;;;;;;5038603;28;20460;-67
2021/06/05 05:43:54;;;;;;;14.93;10.38;;;;;;;;;;5041588;28;20041;-66
2021/06/05 05:46:20;;;;;;;13.55;10.05;;;;;;;;;;5038028;28;20053;-67
2021/06/05 05:48:48;;;;;;;11.45;9.65;;;;;;;;;;5040528;28;20033;-69
2021/06/05 05:51:15;;;;;;;13.40;10.80;;;;;;;;;;5039874;28;20099;-71
2021/06/05 05:53:41;;;;;;;10.52;9.43;;;;;;;;;;5034183;28;20035;-67
2021/06/05 05:56:08;;;;;;;11.05;8.48;;;;;;;;;;5035654;28;20057;-67
2021/06/05 05:58:39;;;;;;;10.93;8.80;;;;;;;;;;5032818;28;20075;-67
2021/06/05 06:01:07;;;;;;;11.02;8.77;;;;;;;;;;5030025;28;20022;-67
2021/06/05 06:03:33;;;;;;;12.23;9.25;;;;;;;;;;5031197;28;20031;-67
2021/06/05 06:06:00;;;;;;;11.05;8.82;;;;;;;;;;5023249;28;20021;-67
2021/06/05 06:08:26;;;;;;;11.70;8.73;;;;;;;;;;5031254;28;20508;-67
2021/06/05 06:10:52;;;;;;;9.13;7.90;;;;;;;;;;5030683;28;20029;-67
2021/06/05 06:13:19;;;;;;;11.48;7.72;;;;;;;;;;5028834;28;20030;-67
2021/06/05 06:15:46;;;;;;;10.25;7.47;;;;;;;;;;5030846;28;20473;-67
2021/06/05 06:18:13;;;;;;;11.10;8.10;;;;;;;;;;5029525;28;20041;-71
2021/06/05 06:20:44;;;;;;;10.45;8.70;;;;;;;;;;5027297;28;20057;-71
2021/06/05 06:23:17;;;;;;;13.10;9.63;;;;;;;;;;5035183;28;20063;-66
2021/06/05 06:25:44;;;;;;;13.27;9.05;;;;;;;;;;5031872;28;20033;-66
2021/06/05 06:28:13;;;;;;;10.93;8.15;;;;;;;;;;5032007;28;20075;-66
2021/06/05 06:30:40;;;;;;;13.20;8.75;;;;;;;;;;5032486;28;20477;-66
2021/06/05 06:33:07;;;;;;;11.13;8.88;;;;;;;;;;5030835;28;20396;-67
2021/06/05 06:35:33;;;;;;;9.43;8.07;;;;;;;;;;5029231;28;20511;-67
2021/06/05 06:38:01;;;;;;;10.23;7.93;;;;;;;;;;5044152;28;20425;-67
2021/06/05 06:40:29;;;;;;;10.73;7.73;;;;;;;;;;5033506;28;20026;-67
2021/06/05 06:42:55;;;;;;;9.25;7.07;;;;;;;;;;5031991;28;20278;-67
2021/06/05 06:45:21;;;;;;;10.00;6.45;;;;;;;;;;5032102;28;20079;-67
2021/06/05 06:47:48;;;;;;;10.10;7.35;;;;;;;;;;5028672;28;20064;-66
2021/06/05 06:50:15;;;;;;;11.02;6.53;;;;;;;;;;5037678;28;20057;-66
2021/06/05 06:52:41;;;;;;;9.73;7.20;;;;;;;;;;5036427;28;20022;-66
2021/06/05 06:55:08;;;;;;;10.48;7.10;;;;;;;;;;5034718;28;20391;-67
2021/06/05 06:57:34;;;;;;;11.57;7.72;;;;;;;;;;5036237;28;20102;-67
2021/06/05 07:00:00;;;;;;;9.20;7.13;;;;;;;;;;5034104;28;20371;-67
2021/06/05 07:02:26;;;;;;;9.93;6.55;;;;;;;;;;5035721;28;20156;-67
2021/06/05 07:04:54;;;;;;;8.30;7.10;;;;;;;;;;5037691;28;20053;-67
2021/06/05 07:07:20;;;;;;;11.88;7.25;;;;;;;;;;5035840;28;20021;-67
2021/06/05 07:09:46;;;;;;;10.02;6.75;;;;;;;;;;5035791;28;20026;-66
2021/06/05 07:12:13;;;;;;;9.43;7.28;;;;;;;;;;5035441;28;20028;-66
2021/06/05 07:14:39;;;;;;;10.32;7.28;;;;;;;;;;5031783;28;20473;-66
2021/06/05 07:17:06;;;;;;;10.52;7.57;;;;;;;;;;5039195;28;20063;-66
2021/06/05 07:19:32;;;;;;;10.90;6.78;;;;;;;;;;5035670;28;20087;-66
2021/06/05 07:21:58;;;;;;;9.07;7.05;;;;;;;;;;5035236;28;20113;-66
2021/06/05 07:24:24;;;;;;;10.77;6.32;;;;;;;;;;5035158;28;20056;-66
2021/06/05 07:26:50;;;;;;;9.82;6.38;;;;;;;;;;5032239;28;20029;-66
2021/06/05 07:29:16;;;;;;;7.88;6.55;;;;;;;;;;5037582;28;20104;-67
2021/06/05 07:31:45;;;;;;;7.75;5.53;;;;;;;;;;5036062;28;20022;-66
2021/06/05 07:34:11;;;;;;;8.00;5.65;;;;;;;;;;5035786;28;20013;-66
2021/06/05 07:36:39;;;;;;;7.22;5.63;;;;;;;;;;5035532;28;20032;-66
2021/06/05 07:39:07;;;;;;;7.20;6.15;;;;;;;;;;5033507;28;20120;-66
2021/06/05 07:41:33;;;;;;;;;;;;;;;;;;5033900;28;20082;-66
2021/06/05 07:43:59;;;;;;;8.85;6.38;;;;;;;;;;5037940;28;20007;-66
2021/06/05 07:46:25;;;;;;;7.35;5.90;;;;;;;;;;5035024;28;20036;-66
2021/06/05 07:48:51;;;;;;;8.85;6.43;;;;;;;;;;5035389;28;20432;-66
2021/06/05 07:51:18;;;;;;;9.68;5.95;;;;;;;;;;5034540;28;20040;-66
2021/06/05 07:53:45;;;;;;;10.57;6.70;;;;;;;;;;5030467;28;20032;-66
2021/06/05 07:56:11;;;;;;;8.53;5.63;;;;;;;;;;5038487;28;20017;-67
2021/06/05 07:58:37;;;;;;;7.82;5.00;;;;;;;;;;5035335;28;20321;-66
2021/06/05 08:01:04;;;;;;;9.18;5.88;;;;;;;;;;5033171;28;20029;-66
2021/06/05 08:03:30;;;;;;;8.50;5.65;;;;;;;;;;5035173;28;20112;-67
2021/06/05 08:05:56;;;;;;;8.52;5.70;;;;;;;;;;5032482;28;20025;-66
2021/06/05 08:08:22;;;;;;;9.30;6.10;;;;;;;;;;5034528;28;20033;-66
2021/06/05 08:10:48;;;;;;;7.55;5.28;;;;;;;;;;5036025;28;20033;-67
2021/06/05 08:13:14;;;;;;;7.70;5.05;;;;;;;;;;5034915;28;20029;-66
2021/06/05 08:15:43;;;;;;;9.27;5.72;;;;;;;;;;5035042;28;20021;-66
2021/06/05 08:18:09;;;;;;;8.13;5.60;;;;;;;;;;5034046;28;20032;-66
2021/06/05 08:20:56;;;;;;;6.55;5.10;;;;;;;;;;5031661;28;20041;-66
2021/06/05 08:23:23;;;;;;;7.05;5.13;;;;;;;;;;5034613;28;20087;-67
2021/06/05 08:25:50;;;;;;;6.60;5.22;;;;;;;;;;5035924;28;20028;-66
2021/06/05 08:28:16;;;;;;;8.57;5.55;;;;;;;;;;5034611;28;20485;-66
2021/06/05 08:30:44;;;;;;;7.45;5.10;;;;;;;;;;5034040;28;20112;-66
2021/06/05 08:33:10;;;;;;;;;;;;;;;;;;5034551;28;20040;-66
2021/06/05 08:35:37;;;;;;;7.13;5.32;;;;;;;;;;5030981;28;19909;-67
2021/06/05 08:38:03;;;;;;;6.47;5.13;;;;;;;;;;5037204;28;20408;-67
2021/06/05 08:40:38;;;;;;;7.13;4.68;;;;;;;;;;5034133;28;20499;-67
2021/06/05 08:43:04;;;;;;;7.25;5.00;;;;;;;;;;5032750;28;20124;-66
2021/06/05 08:45:31;;;;;;;6.88;4.60;;;;;;;;;;5034348;28;20110;-66
2021/06/05 08:47:58;;;;;;;7.50;4.57;;;;;;;;;;5031634;28;20164;-66
2021/06/05 08:50:28;;;;;;;8.98;4.72;;;;;;;;;;5033853;28;20065;-67
2021/06/05 08:52:57;;;;;;;7.63;4.30;;;;;;;;;;5035780;28;20040;-67
2021/06/05 08:55:34;;;;;;;6.35;4.40;;;;;;;;;;5033738;28;20022;-66
2021/06/05 08:58:03;;;;;;;6.95;4.10;;;;;;;;;;5033634;28;20045;-66
2021/06/05 09:00:29;;;;;;;7.20;3.97;;;;;;;;;;5034084;28;20147;-66
2021/06/05 09:02:57;;;;;;;6.82;4.72;;;;;;;;;;5031035;28;20113;-66
2021/06/05 09:05:26;;;;;;;7.75;4.82;;;;;;;;;;5034079;28;20022;-66
2021/06/05 09:07:52;;;;;;;6.60;4.43;;;;;;;;;;5035233;28;20028;-66
2021/06/05 09:10:19;;;;;;;6.38;4.55;;;;;;;;;;5032559;28;20026;-66
2021/06/05 09:12:45;;;;;;;6.65;4.85;;;;;;;;;;5033029;28;20029;-67
2021/06/05 09:15:31;;;;;;;6.35;4.40;;;;;;;;;;5033326;28;20031;-66
2021/06/05 09:18:00;;;;;;;6.15;4.20;;;;;;;;;;5017365;28;20054;-66
2021/06/05 09:20:38;;;;;;;6.55;4.38;;;;;;;;;;5033145;28;20056;-66
2021/06/05 09:23:23;;;;;;;8.05;4.10;;;;;;;;;;5036619;28;20022;-66
2021/06/05 09:25:50;;;;;;;8.48;4.88;;;;;;;;;;5036144;28;20029;-66
2021/06/05 09:28:22;;;;;;;7.05;4.47;;;;;;;;;;5033496;28;20022;-66
2021/06/05 09:30:49;;;;;;;7.80;4.10;;;;;;;;;;5032917;28;20474;-66
2021/06/05 09:33:27;;;;;;;6.95;4.40;;;;;;;;;;5032807;28;20100;-66
2021/06/05 09:35:53;;;;;;;6.63;3.80;;;;;;;;;;5030181;28;20029;-66
2021/06/05 09:38:27;;;;;;;8.68;4.30;;;;;;;;;;5033937;28;20107;-66
2021/06/05 09:40:58;;;;;;;6.38;4.22;;;;;;;;;;5034070;28;20481;-66
2021/06/05 09:43:25;;;;;;;7.47;3.97;;;;;;;;;;5033156;28;20026;-66
2021/06/05 09:46:10;;;;;;;5.88;4.30;;;;;;;;;;5033151;28;20026;-66
2021/06/05 09:48:36;;;;;;;7.00;4.00;;;;;;;;;;5032551;28;20108;-66
2021/06/05 09:51:22;;;;;;;5.18;3.90;;;;;;;;;;5030945;28;20486;-66
2021/06/05 09:53:56;;;;;;;7.15;4.80;;;;;;;;;;5014385;28;20014;-66
2021/06/05 09:56:26;;;;;;;6.93;3.80;;;;;;;;;;5033531;28;20351;-67
2021/06/05 09:59:10;;;;;;;6.45;4.28;;;;;;;;;;5033831;28;20041;-66
2021/06/05 10:01:37;;;;;;;11.15;4.47;;;;;;;;;;5032552;28;20540;-67
2021/06/05 10:04:08;;;;;;;5.10;3.80;;;;;;;;;;5032102;28;20029;-66
2021/06/05 10:06:36;;;;;;;6.38;4.00;;;;;;;;;;5032777;28;20029;-66
2021/06/05 10:09:19;;;;;;;6.20;4.40;;;;;;;;;;5030953;28;20025;-66
2021/06/05 10:11:47;;;;;;;5.57;4.03;;;;;;;;;;5013407;28;20028;-66
2021/06/05 10:14:18;;;;;;;8.68;4.50;;;;;;;;;;5034301;28;20048;-66
2021/06/05 10:16:52;;;;;;;8.90;4.30;;;;;;;;;;5033158;28;20508;-66
2021/06/05 10:19:27;;;;;;;8.48;4.18;;;;;;;;;;5032603;28;20030;-66
2021/06/05 10:21:53;;;;;;;6.20;4.38;;;;;;;;;;5032022;28;20432;-66
2021/06/05 10:24:28;;;;;;;8.52;3.95;;;;;;;;;;5032513;28;20033;-66
2021/06/05 10:26:56;;;;;;;4.70;3.60;;;;;;;;;;5029475;28;20021;-66
2021/06/05 10:29:29;;;;;;;9.05;4.55;;;;;;;;;;5032788;28;20091;-66
2021/06/05 10:31:55;;;;;;;5.82;4.30;;;;;;;;;;5033882;28;20104;-66
2021/06/05 10:34:41;;;;;;;6.72;4.38;;;;;;;;;;5031697;28;20437;-66
2021/06/05 10:37:19;;;;;;;5.90;4.20;;;;;;;;;;5032054;28;20033;-66
2021/06/05 10:39:46;;;;;;;7.47;4.32;;;;;;;;;;5032007;28;20045;-67
2021/06/05 10:42:24;;;;;;;7.40;3.40;;;;;;;;;;5031655;28;20423;-66
2021/06/05 10:44:50;;;;;;;6.65;3.63;;;;;;;;;;5013935;28;20037;-66
2021/06/05 10:47:27;;;;;;;10.30;3.88;;;;;;;;;;5033546;28;20033;-66
2021/06/05 10:50:06;;;;;;;6.97;4.20;;;;;;;;;;5033663;28;20024;-66
2021/06/05 10:52:35;;;;;;;6.53;4.03;;;;;;;;;;5032303;28;20310;-65
2021/06/05 10:55:20;;;;;;;8.18;4.22;;;;;;;;;;5032217;28;20024;-66
2021/06/05 10:57:52;;;;;;;4.75;3.83;;;;;;;;;;5031521;28;20187;-66
2021/06/05 11:00:36;;;;;;;6.80;4.28;;;;;;;;;;5031896;28;20033;-66
2021/06/05 11:03:04;;;;;;;7.53;4.00;;;;;;;;;;5030789;28;20026;-66
2021/06/05 11:05:34;;;;;;;9.18;4.38;;;;;;;;;;5030516;28;20362;-66
2021/06/05 11:08:10;;;;;;;5.47;4.40;;;;;;;;;;5034189;28;20104;-66
2021/06/05 11:10:51;;;;;;;8.32;4.45;;;;;;;;;;5031783;28;20540;-66
2021/06/05 11:13:36;;;;;;;8.43;4.82;;;;;;;;;;5031479;28;20493;-66
2021/06/05 11:16:08;;;;;;;8.63;4.13;;;;;;;;;;5032011;28;20030;-66
2021/06/05 11:18:46;;;;;;;7.47;4.55;;;;;;;;;;5032071;28;20074;-66
2021/06/05 11:21:26;;;;;;;6.00;4.15;;;;;;;;;;5031258;28;20071;-66
2021/06/05 11:23:58;;;;;;;7.55;4.88;;;;;;;;;;5014326;28;20034;-66
2021/06/05 11:26:37;;;;;;;8.40;4.70;;;;;;;;;;5031802;28;20427;-66
2021/06/05 11:29:04;;;;;;;6.53;3.83;;;;;;;;;;5034567;28;20017;-66
2021/06/05 11:31:39;;;;;;;5.90;4.28;;;;;;;;;;5031904;28;20085;-66
2021/06/05 11:34:05;;;;;;;9.82;4.53;;;;;;;;;;5031314;28;20499;-66
2021/06/05 11:36:33;;;;;;;6.35;3.58;;;;;;;;;;5035572;28;20025;-66
2021/06/05 11:38:59;;;;;;;7.00;4.18;;;;;;;;;;5032816;28;20042;-65
2021/06/05 11:41:44;;;;;;;6.75;3.72;;;;;;;;;;5035268;28;20030;-65
2021/06/05 11:44:29;;;;;;;6.28;3.60;;;;;;;;;;5050132;28;20028;-65
2021/06/05 11:47:15;;;;;;;5.70;3.58;;;;;;;;;;5036698;28;20037;-66
2021/06/05 11:49:41;;;;;;;4.78;3.53;;;;;;;;;;5027292;28;20048;-66
2021/06/05 11:52:36;;;;;;;4.53;3.05;;;;;;;;;;5035193;28;20100;-66
2021/06/05 11:55:21;;;;;;;7.65;3.53;;;;;;;;;;5034847;28;20485;-66
2021/06/05 11:57:52;;;;;;;5.03;3.30;;;;;;;;;;5034306;28;20484;-66
2021/06/05 12:00:18;;;;;;;6.10;3.67;;;;;;;;;;5034876;28;20028;-66
2021/06/05 12:02:45;;;;;;;8.35;2.92;;;;;;;;;;5030781;28;20025;-65
2021/06/05 12:05:17;;;;;;;10.07;3.67;;;;;;;;;;5037770;28;20096;-65
2021/06/05 12:07:43;;;;;;;5.70;2.92;;;;;;;;;;5035905;28;20036;-65
2021/06/05 12:10:10;;;;;;;5.40;2.47;;;;;;;;;;5034400;28;20125;-65
2021/06/05 12:12:38;;;;;;;3.80;2.03;;;;;;;;;;5034472;28;20041;-65
2021/06/05 12:15:20;;;;;;;4.93;1.60;;;;;;;;;;5033411;28;20081;-65
2021/06/05 12:17:54;;;;;;;2.97;1.40;;;;;;;;;;5014928;28;20060;-65
2021/06/05 12:20:19;;;;;;;4.50;1.52;;;;;;;;;;5035470;28;20067;-65
2021/06/05 12:22:48;;;;;;;1.85;1.00;;;;;;;;;;5035457;28;20025;-65
2021/06/05 12:25:22;;;;;;;1.88;0.93;;;;;;;;;;5033990;28;20032;-65
2021/06/05 12:27:48;;;;;;;1.20;1.02;;;;;;;;;;5034269;28;20022;-65
2021/06/05 12:30:14;;;;;;;4.53;1.17;;;;;;;;;;5034455;28;20033;-65
2021/06/05 12:32:51;;;;;;;3.38;1.33;;;;;;;;;;5014145;28;20021;-65
2021/06/05 12:35:18;;;;;;;5.15;1.50;;;;;;;;;;5035485;28;20025;-65
2021/06/05 12:37:48;;;;;;;2.63;1.08;;;;;;;;;;5036429;28;20497;-67
2021/06/05 12:40:16;;;;;;;1.50;0.80;;;;;;;;;;5034062;28;20499;-65
2021/06/05 12:42:43;;;;;;;1.67;0.93;;;;;;;;;;5034002;28;20049;-64
2021/06/05 12:45:11;;;;;;;3.33;0.82;;;;;;;;;;5033093;28;20017;-64
2021/06/05 12:47:39;;;;;;;6.25;1.40;;;;;;;;;;5029895;28;20117;-65
2021/06/05 12:50:06;;;;;;;3.13;0.98;;;;;;;;;;5037661;28;20459;-65
2021/06/05 12:52:33;;;;;;;1.83;0.85;;;;;;;;;;5033930;28;20571;-67
2021/06/05 12:55:19;;;;;;;3.50;1.05;;;;;;;;;;5033565;28;20036;-65
2021/06/05 12:57:51;;;;;;;4.90;0.80;;;;;;;;;;5033507;28;20399;-65
2021/06/05 13:00:17;;;;;;;3.25;0.80;;;;;;;;;;5033908;28;20056;-66
2021/06/05 13:02:44;;;;;;;1.02;0.60;;;;;;;;;;5029380;28;20025;-64
2021/06/05 13:05:18;;;;;;;2.00;0.77;;;;;;;;;;5036825;28;20422;-67
2021/06/05 13:07:46;;;;;;;3.83;0.80;;;;;;;;;;5035570;28;20078;-66
2021/06/05 13:10:33;;;;;;;3.65;1.00;;;;;;;;;;5033539;28;20076;-66
2021/06/05 13:13:13;;;;;;;1.77;0.88;;;;;;;;;;5033594;28;20492;-67
2021/06/05 13:15:44;;;;;;;2.78;1.00;;;;;;;;;;5033675;28;20026;-66
2021/06/05 13:18:12;;;;;;;2.05;1.02;;;;;;;;;;5032845;28;20521;-67
2021/06/05 13:20:44;;;;;;;2.90;1.40;;;;;;;;;;5030040;28;20050;-67
2021/06/05 13:23:25;;;;;;;3.10;1.10;;;;;;;;;;5044006;28;20029;-66
2021/06/05 13:25:52;;;;;;;2.30;0.77;;;;;;;;;;5036560;28;20060;-66
2021/06/05 13:28:25;;;;;;;3.45;0.88;;;;;;;;;;5033466;28;20111;-66
2021/06/05 13:30:51;;;;;;;3.45;0.80;;;;;;;;;;5033288;28;20029;-66
2021/06/05 13:33:29;;;;;;;2.15;0.80;;;;;;;;;;5033133;28;20547;-66
2021/06/05 13:35:57;;;;;;;4.18;1.17;;;;;;;;;;5030466;28;20030;-66
2021/06/05 13:38:24;;;;;;;2.67;0.90;;;;;;;;;;5032721;28;20599;-66
2021/06/05 13:40:54;;;;;;;4.00;0.98;;;;;;;;;;5034252;28;20543;-67
2021/06/05 13:43:21;;;;;;;3.63;1.05;;;;;;;;;;5032919;28;20075;-67
2021/06/05 13:45:47;;;;;;;3.30;1.02;;;;;;;;;;5032636;28;20112;-66
2021/06/05 13:48:13;;;;;;;2.10;0.90;;;;;;;;;;5032620;28;20032;-67
2021/06/05 13:50:39;;;;;;;3.03;0.95;;;;;;;;;;5029398;28;20022;-66
2021/06/05 13:53:10;;;;;;;2.25;0.80;;;;;;;;;;5035411;28;20105;-66
2021/06/05 13:55:39;;;;;;;1.45;0.73;;;;;;;;;;5031778;28;20025;-67
2021/06/05 13:58:05;;;;;;;1.65;0.88;;;;;;;;;;5032306;28;20090;-67
2021/06/05 14:00:31;;;;;;;3.80;1.13;;;;;;;;;;5032342;28;20031;-66
2021/06/05 14:02:57;;;;;;;1.88;0.90;;;;;;;;;;5030425;28;20026;-67
2021/06/05 14:05:23;;;;;;;1.90;0.93;;;;;;;;;;5032779;28;20036;-67
2021/06/05 14:07:50;;;;;;;2.05;1.17;;;;;;;;;;5033478;28;20060;-66
2021/06/05 14:10:17;;;;;;;3.22;1.05;;;;;;;;;;5032355;28;20028;-67
2021/06/05 14:12:44;;;;;;;4.07;1.03;;;;;;;;;;5032525;28;20031;-67
2021/06/05 14:15:22;;;;;;;2.95;0.85;;;;;;;;;;5032040;28;20028;-67
2021/06/05 14:17:47;;;;;;;;;;;;;;;;;;5014250;28;20121;-64
2021/06/05 14:20:14;;;;;;;5.57;1.10;;;;;;;;;;5034681;28;19949;-67
2021/06/05 14:22:40;;;;;;;3.47;0.80;;;;;;;;;;5034030;28;20021;-66
2021/06/05 14:25:07;;;;;;;3.60;0.80;;;;;;;;;;5032370;28;20024;-67
2021/06/05 14:27:33;;;;;;;3.08;0.82;;;;;;;;;;5031905;28;20431;-67
2021/06/05 14:29:59;;;;;;;2.78;1.00;;;;;;;;;;5030532;28;20018;-65
2021/06/05 14:32:26;;;;;;;5.15;0.90;;;;;;;;;;5032498;28;20025;-64
2021/06/05 14:34:52;;;;;;;1.88;0.85;;;;;;;;;;5033563;28;20022;-67
2021/06/05 14:37:18;;;;;;;1.23;0.70;;;;;;;;;;5031547;28;20025;-66
2021/06/05 14:39:44;;;;;;;3.92;0.90;;;;;;;;;;5032019;28;20041;-66
2021/06/05 14:42:12;;;;;;;2.70;1.05;;;;;;;;;;5031105;28;20075;-67
2021/06/05 14:44:38;;;;;;;4.60;1.25;;;;;;;;;;5029184;28;20030;-66
2021/06/05 14:47:04;;;;;;;3.35;1.10;;;;;;;;;;5035111;28;20034;-67